Time;durP1;ratioP1;P1;durP2;ratioP2;P2;SDS_P1;SDS_P2;PMS_P1;PMS_P2;Temp;Humidity;BMP_temperature;BMP_pressure;BME280_temperature;BME280_humidity;BME280_pressure;Samples;Min_cycle;Max_cycle;Signal;HPM_P1;HPM_P2
2024/01/08 00:01:28;;;;;;;;;;;;;;;;;;5052523;28;19959;-70
2024/01/08 00:03:54;;;;;;;;;;;;;;;;;;5052046;28;19916;-70
2024/01/08 00:06:20;;;;;;;;;;;;;;;;;;5053727;28;19908;-70
2024/01/08 00:08:46;;;;;;;;;;;;;;;;;;5053904;28;19941;-70
2024/01/08 00:11:11;;;;;;;;;;;;;;;;;;5053546;28;19962;-70
2024/01/08 00:13:37;;;;;;;;;;;;;;;;;;5054221;28;19913;-70
2024/01/08 00:16:03;;;;;;;;;;;;;;;;;;5053607;28;20384;-70
2024/01/08 00:18:29;;;;;;;;;;;;;;;;;;5053138;28;20267;-69
2024/01/08 00:20:56;;;;;;;;;;;;;;;;;;5053588;28;19953;-70
2024/01/08 00:23:22;;;;;;;;;;;;;;;;;;5052237;28;19909;-70
2024/01/08 00:25:48;;;;;;;;;;;;;;;;;;5053166;28;19978;-70
2024/01/08 00:28:14;;;;;;;;;;;;;;;;;;5053542;28;19920;-70
2024/01/08 00:30:40;;;;;;;;;;;;;;;;;;5052274;28;20303;-70
2024/01/08 00:33:06;;;;;;;;;;;;;;;;;;5053189;28;20266;-70
2024/01/08 00:35:32;;;;;;;;;;;;;;;;;;5053408;28;19999;-70
2024/01/08 00:37:58;;;;;;;;;;;;;;;;;;5052005;28;19924;-70
2024/01/08 00:40:24;;;;;;;;;;;;;;;;;;5052034;28;19913;-70
2024/01/08 00:42:50;;;;;;;;;;;;;;;;;;5052220;28;19943;-70
2024/01/08 00:45:16;;;;;;;;;;;;;;;;;;5052282;28;19909;-70
2024/01/08 00:47:42;;;;;;;;;;;;;;;;;;5056145;28;20033;-70
2024/01/08 00:50:13;;;;;;;;;;;;;;;;;;5057310;28;19917;-70
2024/01/08 00:52:39;;;;;;;;;;;;;;;;;;5055611;28;19909;-73
2024/01/08 00:55:05;;;;;;;;;;;;;;;;;;5057065;28;19919;-69
2024/01/08 00:57:31;;;;;;;;;;;;;;;;;;5057299;28;19921;-70
2024/01/08 00:59:57;;;;;;;;;;;;;;;;;;5056829;28;19908;-70
2024/01/08 01:02:23;;;;;;;;;;;;;;;;;;5057587;28;19909;-70
2024/01/08 01:04:49;;;;;;;;;;;;;;;;;;5057068;28;20346;-70
2024/01/08 01:07:15;;;;;;;;;;;;;;;;;;5056667;28;20324;-70
2024/01/08 01:09:41;;;;;;;;;;;;;;;;;;5056960;28;20285;-70
2024/01/08 01:12:07;;;;;;;;;;;;;;;;;;5056884;28;20008;-70
2024/01/08 01:14:33;;;;;;;;;;;;;;;;;;5056648;28;19912;-70
2024/01/08 01:16:59;;;;;;;;;;;;;;;;;;5056779;28;19916;-70
2024/01/08 01:19:25;;;;;;;;;;;;;;;;;;5056956;28;19964;-70
2024/01/08 01:21:51;;;;;;;;;;;;;;;;;;5056318;28;19909;-70
2024/01/08 01:24:17;;;;;;;;;;;;;;;;;;5055415;28;19908;-71
2024/01/08 01:26:43;;;;;;;;;;;;;;;;;;5056658;28;19947;-70
2024/01/08 01:29:09;;;;;;;;;;;;;;;;;;5056221;28;20286;-70
2024/01/08 01:31:35;;;;;;;;;;;;;;;;;;5056590;28;19955;-70
2024/01/08 01:34:01;;;;;;;;;;;;;;;;;;5056572;28;19964;-70
2024/01/08 01:36:27;;;;;;;;;;;;;;;;;;5056037;28;19955;-70
2024/01/08 01:38:53;;;;;;;;;;;;;;;;;;5056545;28;19920;-70
2024/01/08 01:41:19;;;;;;;;;;;;;;;;;;5056390;28;19952;-70
2024/01/08 01:43:45;;;;;;;;;;;;;;;;;;5056015;28;19913;-70
2024/01/08 01:46:11;;;;;;;;;;;;;;;;;;5056292;28;19916;-70
2024/01/08 01:48:37;;;;;;;;;;;;;;;;;;5056212;28;19916;-70
2024/01/08 01:51:03;;;;;;;;;;;;;;;;;;5056058;28;19908;-70
2024/01/08 01:53:29;;;;;;;;;;;;;;;;;;5056436;28;19916;-70
2024/01/08 01:55:55;;;;;;;;;;;;;;;;;;5055715;28;19921;-69
2024/01/08 01:58:21;;;;;;;;;;;;;;;;;;5053713;28;19917;-70
2024/01/08 02:00:47;;;;;;;;;;;;;;;;;;5056058;28;19909;-70
2024/01/08 02:03:13;;;;;;;;;;;;;;;;;;5054304;28;19974;-70
2024/01/08 02:05:39;;;;;;;;;;;;;;;;;;5056270;28;20369;-70
2024/01/08 02:08:05;;;;;;;;;;;;;;;;;;5056275;28;19909;-70
2024/01/08 02:10:31;;;;;;;;;;;;;;;;;;5055416;28;19954;-70
2024/01/08 02:12:57;;;;;;;;;;;;;;;;;;5055913;28;19972;-70
2024/01/08 02:15:23;;;;;;;;;;;;;;;;;;5055724;28;20020;-70
2024/01/08 02:17:49;;;;;;;;;;;;;;;;;;5053980;28;19916;-70
2024/01/08 02:20:15;;;;;;;;;;;;;;;;;;5055706;28;19913;-70
2024/01/08 02:22:41;;;;;;;;;;;;;;;;;;5055942;28;19909;-70
2024/01/08 02:25:07;;;;;;;;;;;;;;;;;;5055128;28;19909;-69
2024/01/08 02:27:33;;;;;;;;;;;;;;;;;;5055578;28;19916;-70
2024/01/08 02:29:59;;;;;;;;;;;;;;;;;;5055351;28;19963;-69
2024/01/08 02:32:25;;;;;;;;;;;;;;;;;;5055018;28;19963;-70
2024/01/08 02:34:51;;;;;;;;;;;;;;;;;;5055458;28;19909;-70
2024/01/08 02:37:17;;;;;;;;;;;;;;;;;;5055285;28;19919;-70
2024/01/08 02:39:43;;;;;;;;;;;;;;;;;;5054950;28;19909;-70
2024/01/08 02:42:09;;;;;;;;;;;;;;;;;;5055449;28;19913;-70
2024/01/08 02:44:35;;;;;;;;;;;;;;;;;;5055158;28;19913;-70
2024/01/08 02:47:00;;;;;;;;;;;;;;;;;;5054860;28;20000;-70
2024/01/08 02:49:26;;;;;;;;;;;;;;;;;;5055066;28;19908;-70
2024/01/08 02:51:52;;;;;;;;;;;;;;;;;;5055052;28;19940;-70
2024/01/08 02:54:18;;;;;;;;;;;;;;;;;;5054648;28;19916;-70
2024/01/08 02:56:44;;;;;;;;;;;;;;;;;;5054683;28;20390;-70
2024/01/08 02:59:10;;;;;;;;;;;;;;;;;;5054457;28;20015;-70
2024/01/08 03:01:38;;;;;;;;;;;;;;;;;;5054809;28;19908;-70
2024/01/08 03:04:04;;;;;;;;;;;;;;;;;;5054755;28;19913;-70
2024/01/08 03:06:30;;;;;;;;;;;;;;;;;;5054345;28;20274;-70
2024/01/08 03:08:56;;;;;;;;;;;;;;;;;;5054591;28;20014;-70
2024/01/08 03:11:22;;;;;;;;;;;;;;;;;;5053359;28;19909;-70
2024/01/08 03:13:48;;;;;;;;;;;;;;;;;;5054256;28;19931;-70
2024/01/08 03:16:14;;;;;;;;;;;;;;;;;;5054492;28;19975;-70
2024/01/08 03:18:40;;;;;;;;;;;;;;;;;;5054456;28;19916;-70
2024/01/08 03:21:06;;;;;;;;;;;;;;;;;;5054068;28;19932;-70
2024/01/08 03:23:32;;;;;;;;;;;;;;;;;;5054460;28;19908;-70
2024/01/08 03:25:58;;;;;;;;;;;;;;;;;;5054484;28;20381;-70
2024/01/08 03:28:24;;;;;;;;;;;;;;;;;;5053958;28;20349;-70
2024/01/08 03:30:50;;;;;;;;;;;;;;;;;;5053049;28;20357;-70
2024/01/08 03:33:16;;;;;;;;;;;;;;;;;;5054316;28;19909;-70
2024/01/08 03:35:43;;;;;;;;;;;;;;;;;;5053819;28;19962;-69
2024/01/08 03:38:09;;;;;;;;;;;;;;;;;;5054147;28;19921;-70
2024/01/08 03:40:35;;;;;;;;;;;;;;;;;;5054135;28;19919;-70
2024/01/08 03:43:00;;;;;;;;;;;;;;;;;;5052338;28;19909;-70
2024/01/08 03:45:27;;;;;;;;;;;;;;;;;;5054062;28;19909;-70
2024/01/08 03:47:53;;;;;;;;;;;;;;;;;;5054026;28;19916;-70
2024/01/08 03:50:19;;;;;;;;;;;;;;;;;;5053619;28;19909;-70
2024/01/08 03:52:45;;;;;;;;;;;;;;;;;;5053901;28;19916;-70
2024/01/08 03:55:11;;;;;;;;;;;;;;;;;;5053742;28;19909;-70
2024/01/08 03:57:37;;;;;;;;;;;;;;;;;;5053438;28;19915;-70
2024/01/08 04:00:03;;;;;;;;;;;;;;;;;;5053798;28;20280;-70
2024/01/08 04:02:28;;;;;;;;;;;;;;;;;;5053639;28;19908;-70
2024/01/08 04:04:55;;;;;;;;;;;;;;;;;;5053762;28;19952;-70
2024/01/08 04:07:20;;;;;;;;;;;;;;;;;;5053790;28;19916;-70
2024/01/08 04:09:46;;;;;;;;;;;;;;;;;;5053308;28;19909;-70
2024/01/08 04:12:13;;;;;;;;;;;;;;;;;;5052364;28;19940;-70
2024/01/08 04:14:39;;;;;;;;;;;;;;;;;;5054005;28;20392;-70
2024/01/08 04:17:05;;;;;;;;;;;;;;;;;;5053493;28;19913;-70
2024/01/08 04:19:31;;;;;;;;;;;;;;;;;;5052302;28;19917;-70
2024/01/08 04:21:57;;;;;;;;;;;;;;;;;;5053108;28;20269;-70
2024/01/08 04:24:24;;;;;;;;;;;;;;;;;;5053130;28;19914;-70
2024/01/08 04:26:50;;;;;;;;;;;;;;;;;;5053951;28;19915;-70
2024/01/08 04:29:16;;;;;;;;;;;;;;;;;;5053528;28;20007;-70
2024/01/08 04:31:42;;;;;;;;;;;;;;;;;;5053061;28;19909;-70
2024/01/08 04:34:09;;;;;;;;;;;;;;;;;;5052117;28;19916;-70
2024/01/08 04:36:35;;;;;;;;;;;;;;;;;;5053751;28;19964;-70
2024/01/08 04:39:01;;;;;;;;;;;;;;;;;;5053025;28;20381;-70
2024/01/08 04:41:27;;;;;;;;;;;;;;;;;;5053639;28;20384;-70
2024/01/08 04:43:52;;;;;;;;;;;;;;;;;;5053331;28;20320;-70
2024/01/08 04:46:18;;;;;;;;;;;;;;;;;;5052875;28;19909;-70
2024/01/08 04:48:44;;;;;;;;;;;;;;;;;;5053291;28;20004;-70
2024/01/08 04:51:10;;;;;;;;;;;;;;;;;;5051969;28;19909;-70
2024/01/08 04:53:36;;;;;;;;;;;;;;;;;;5051590;28;20422;-70
2024/01/08 04:56:02;;;;;;;;;;;;;;;;;;5053350;28;20285;-70
2024/01/08 04:58:28;;;;;;;;;;;;;;;;;;5053096;28;19917;-70
2024/01/08 05:00:54;;;;;;;;;;;;;;;;;;5051728;28;19970;-70
2024/01/08 05:03:20;;;;;;;;;;;;;;;;;;5053236;28;19916;-70
2024/01/08 05:05:46;;;;;;;;;;;;;;;;;;5051533;28;20443;-70
2024/01/08 05:08:12;;;;;;;;;;;;;;;;;;5053236;28;20251;-70
2024/01/08 05:10:38;;;;;;;;;;;;;;;;;;5053097;28;19908;-70
2024/01/08 05:13:04;;;;;;;;;;;;;;;;;;5052675;28;19983;-70
2024/01/08 05:15:32;;;;;;;;;;;;;;;;;;5053073;28;19916;-70
2024/01/08 05:17:58;;;;;;;;;;;;;;;;;;5052967;28;19917;-70
2024/01/08 05:20:24;;;;;;;;;;;;;;;;;;5052652;28;19919;-70
2024/01/08 05:22:50;;;;;;;;;;;;;;;;;;5053034;28;19919;-70
2024/01/08 05:25:16;;;;;;;;;;;;;;;;;;5051733;28;19971;-70
2024/01/08 05:27:42;;;;;;;;;;;;;;;;;;5052552;28;19992;-70
2024/01/08 05:30:08;;;;;;;;;;;;;;;;;;5052940;28;19916;-70
2024/01/08 05:32:34;;;;;;;;;;;;;;;;;;5052973;28;19913;-70
2024/01/08 05:34:59;;;;;;;;;;;;;;;;;;5055738;28;19939;-70
2024/01/08 05:37:25;;;;;;;;;;;;;;;;;;5056433;28;19909;-70
2024/01/08 05:39:51;;;;;;;;;;;;;;;;;;5056516;28;19909;-70
2024/01/08 05:42:17;;;;;;;;;;;;;;;;;;5055926;28;19913;-70
2024/01/08 05:44:43;;;;;;;;;;;;;;;;;;5056313;28;20388;-69
2024/01/08 05:47:09;;;;;;;;;;;;;;;;;;5056366;28;19909;-70
2024/01/08 05:49:35;;;;;;;;;;;;;;;;;;5054506;28;19913;-70
2024/01/08 05:52:01;;;;;;;;;;;;;;;;;;5054913;28;20423;-70
2024/01/08 05:54:27;;;;;;;;;;;;;;;;;;5056300;28;19913;-69
2024/01/08 05:56:53;;;;;;;;;;;;;;;;;;5054263;28;19964;-69
2024/01/08 05:59:19;;;;;;;;;;;;;;;;;;5054633;28;19917;-69
2024/01/08 06:01:45;;;;;;;;;;;;;;;;;;5056037;28;19908;-70
2024/01/08 06:04:11;;;;;;;;;;;;;;;;;;5054337;28;20319;-69
2024/01/08 06:06:37;;;;;;;;;;;;;;;;;;5056112;28;19909;-70
2024/01/08 06:09:03;;;;;;;;;;;;;;;;;;5055434;28;19909;-70
2024/01/08 06:11:29;;;;;;;;;;;;;;;;;;5055847;28;19916;-69
2024/01/08 06:13:55;;;;;;;;;;;;;;;;;;5055784;28;20281;-69
2024/01/08 06:16:21;;;;;;;;;;;;;;;;;;5055255;28;20266;-70
2024/01/08 06:18:47;;;;;;;;;;;;;;;;;;5055792;28;19917;-69
2024/01/08 06:21:13;;;;;;;;;;;;;;;;;;5054293;28;19995;-70
2024/01/08 06:23:39;;;;;;;;;;;;;;;;;;5054039;28;19908;-70
2024/01/08 06:26:05;;;;;;;;;;;;;;;;;;5054599;28;20250;-70
2024/01/08 06:28:32;;;;;;;;;;;;;;;;;;5054260;28;20003;-70
2024/01/08 06:30:58;;;;;;;;;;;;;;;;;;5055274;28;20016;-70
2024/01/08 06:33:24;;;;;;;;;;;;;;;;;;5055755;28;20467;-70
2024/01/08 06:35:50;;;;;;;;;;;;;;;;;;5054107;28;20270;-70
2024/01/08 06:38:17;;;;;;;;;;;;;;;;;;5054861;28;19919;-70
2024/01/08 06:40:43;;;;;;;;;;;;;;;;;;5055251;28;19916;-69
2024/01/08 06:43:09;;;;;;;;;;;;;;;;;;5055405;28;20277;-69
2024/01/08 06:45:35;;;;;;;;;;;;;;;;;;5054456;28;19909;-70
2024/01/08 06:48:01;;;;;;;;;;;;;;;;;;5055634;28;19909;-69
2024/01/08 06:50:27;;;;;;;;;;;;;;;;;;5055213;28;19994;-70
2024/01/08 06:52:53;;;;;;;;;;;;;;;;;;5053387;28;19968;-70
2024/01/08 06:55:19;;;;;;;;;;;;;;;;;;5054803;28;19919;-70
2024/01/08 06:57:47;;;;;;;;;;;;;;;;;;5055229;28;20333;-70
2024/01/08 07:00:13;;;;;;;;;;;;;;;;;;5054532;28;19909;-70
2024/01/08 07:02:40;;;;;;;;;;;;;;;;;;5054876;28;19915;-70
2024/01/08 07:05:06;;;;;;;;;;;;;;;;;;5054788;28;19909;-70
2024/01/08 07:07:31;;;;;;;;;;;;;;;;;;5054410;28;19916;-70
2024/01/08 07:09:57;;;;;;;;;;;;;;;;;;5054741;28;19909;-70
2024/01/08 07:12:23;;;;;;;;;;;;;;;;;;5053045;28;19908;-70
2024/01/08 07:14:50;;;;;;;;;;;;;;;;;;5053419;28;19909;-71
2024/01/08 07:17:16;;;;;;;;;;;;;;;;;;5054607;28;19916;-70
2024/01/08 07:19:42;;;;;;;;;;;;;;;;;;5054074;28;19992;-70
2024/01/08 07:22:08;;;;;;;;;;;;;;;;;;5053215;28;19966;-70
2024/01/08 07:24:34;;;;;;;;;;;;;;;;;;5054878;28;19913;-70
2024/01/08 07:27:00;;;;;;;;;;;;;;;;;;5054125;28;19909;-70
2024/01/08 07:29:26;;;;;;;;;;;;;;;;;;5053067;28;20010;-70
2024/01/08 07:31:52;;;;;;;;;;;;;;;;;;5054375;28;19909;-70
2024/01/08 07:34:19;;;;;;;;;;;;;;;;;;5053790;28;20384;-70
2024/01/08 07:36:45;;;;;;;;;;;;;;;;;;5052920;28;19915;-71
2024/01/08 07:39:18;;;;;;;;;;;;;;;;;;5052984;28;19916;-70
2024/01/08 07:41:45;;;;;;;;;;;;;;;;;;5053819;28;20397;-68
2024/01/08 07:44:11;;;;;;;;;;;;;;;;;;5054084;28;19962;-69
2024/01/08 07:46:37;;;;;;;;;;;;;;;;;;5054033;28;20351;-69
2024/01/08 07:49:03;;;;;;;;;;;;;;;;;;5053589;28;20007;-68
2024/01/08 07:51:29;;;;;;;;;;;;;;;;;;5054064;28;19916;-69
2024/01/08 07:53:55;;;;;;;;;;;;;;;;;;5054003;28;19909;-69
2024/01/08 07:56:21;;;;;;;;;;;;;;;;;;5052625;28;19921;-69
2024/01/08 07:58:47;;;;;;;;;;;;;;;;;;5053875;28;19964;-69
2024/01/08 08:01:13;;;;;;;;;;;;;;;;;;5053873;28;19913;-70
2024/01/08 08:03:39;;;;;;;;;;;;;;;;;;5053445;28;19916;-70
2024/01/08 08:06:05;;;;;;;;;;;;;;;;;;5053940;28;19909;-70
2024/01/08 08:08:34;;;;;;;;;;;;;;;;;;5052672;28;19935;-70
2024/01/08 08:11:01;;;;;;;;;;;;;;;;;;5053929;28;19916;-70
2024/01/08 08:13:27;;;;;;;;;;;;;;;;;;5053650;28;20254;-70
2024/01/08 08:15:53;;;;;;;;;;;;;;;;;;5051966;28;19909;-70
2024/01/08 08:18:19;;;;;;;;;;;;;;;;;;5053842;28;19923;-70
2024/01/08 08:20:45;;;;;;;;;;;;;;;;;;5053628;28;19916;-70
2024/01/08 08:23:14;;;;;;;;;;;;;;;;;;5053168;28;19916;-70
2024/01/08 08:25:40;;;;;;;;;;;;;;;;;;5053482;28;19908;-70
2024/01/08 08:28:06;;;;;;;;;;;;;;;;;;5053456;28;20007;-71
2024/01/08 08:30:32;;;;;;;;;;;;;;;;;;5051871;28;19916;-70
2024/01/08 08:32:58;;;;;;;;;;;;;;;;;;5053815;28;20361;-70
2024/01/08 08:35:24;;;;;;;;;;;;;;;;;;5053407;28;19973;-70
2024/01/08 08:37:50;;;;;;;;;;;;;;;;;;5052877;28;20335;-70
2024/01/08 08:40:16;;;;;;;;;;;;;;;;;;5053325;28;19931;-70
2024/01/08 08:42:43;;;;;;;;;;;;;;;;;;5053590;28;19909;-70
2024/01/08 08:45:09;;;;;;;;;;;;;;;;;;5053248;28;20353;-70
2024/01/08 08:47:35;;;;;;;;;;;;;;;;;;5053430;28;19915;-71
2024/01/08 08:50:02;;;;;;;;;;;;;;;;;;5053207;28;20270;-71
2024/01/08 08:52:28;;;;;;;;;;;;;;;;;;5052839;28;19909;-71
2024/01/08 08:54:54;;;;;;;;;;;;;;;;;;5053298;28;19999;-70
2024/01/08 08:57:20;;;;;;;;;;;;;;;;;;5053078;28;19974;-70
2024/01/08 08:59:46;;;;;;;;;;;;;;;;;;5052846;28;19917;-71
2024/01/08 09:02:12;;;;;;;;;;;;;;;;;;5051890;28;19996;-70
2024/01/08 09:04:38;;;;;;;;;;;;;;;;;;5053185;28;19909;-70
2024/01/08 09:07:06;;;;;;;;;;;;;;;;;;5053207;28;19958;-71
2024/01/08 09:09:32;;;;;;;;;;;;;;;;;;5057199;28;20323;-70
2024/01/08 09:11:58;;;;;;;;;;;;;;;;;;5056700;28;19909;-70
2024/01/08 09:14:24;;;;;;;;;;;;;;;;;;5056911;28;19912;-70
2024/01/08 09:16:50;;;;;;;;;;;;;;;;;;5057078;28;19944;-70
2024/01/08 09:19:16;;;;;;;;;;;;;;;;;;5056462;28;19916;-70
2024/01/08 09:21:42;;;;;;;;;;;;;;;;;;5057116;28;19987;-70
2024/01/08 09:24:07;;;;;;;;;;;;;;;;;;5056760;28;20246;-70
2024/01/08 09:26:33;;;;;;;;;;;;;;;;;;5056389;28;20277;-70
2024/01/08 09:28:59;;;;;;;;;;;;;;;;;;5056617;28;20323;-70
2024/01/08 09:31:25;;;;;;;;;;;;;;;;;;5056618;28;19908;-70
2024/01/08 09:33:51;;;;;;;;;;;;;;;;;;5056123;28;19916;-70
2024/01/08 09:36:17;;;;;;;;;;;;;;;;;;5056559;28;19971;-71
2024/01/08 09:38:45;;;;;;;;;;;;;;;;;;5056421;28;19916;-70
2024/01/08 09:41:12;;;;;;;;;;;;;;;;;;5054720;28;19909;-70
2024/01/08 09:43:38;;;;;;;;;;;;;;;;;;5056445;28;19913;-70
2024/01/08 09:46:04;;;;;;;;;;;;;;;;;;5056273;28;19952;-70
2024/01/08 09:48:30;;;;;;;;;;;;;;;;;;5055904;28;20380;-71
2024/01/08 09:50:56;;;;;;;;;;;;;;;;;;5056257;28;20357;-70
2024/01/08 09:53:22;;;;;;;;;;;;;;;;;;5054855;28;19909;-71
2024/01/08 09:55:48;;;;;;;;;;;;;;;;;;5054269;28;19927;-71
2024/01/08 09:58:14;;;;;;;;;;;;;;;;;;5056239;28;19928;-71
2024/01/08 10:00:40;;;;;;;;;;;;;;;;;;5056109;28;19916;-70
2024/01/08 10:03:06;;;;;;;;;;;;;;;;;;5055670;28;19999;-71
2024/01/08 10:05:32;;;;;;;;;;;;;;;;;;5056023;28;20435;-71
2024/01/08 10:07:58;;;;;;;;;;;;;;;;;;5055872;28;19909;-71
2024/01/08 10:10:25;;;;;;;;;;;;;;;;;;5055455;28;20019;-70
2024/01/08 10:12:53;;;;;;;;;;;;;;;;;;5055860;28;19955;-70
2024/01/08 10:15:19;;;;;;;;;;;;;;;;;;5055344;28;19955;-71
2024/01/08 10:17:45;;;;;;;;;;;;;;;;;;5055640;28;19940;-71
2024/01/08 10:20:11;;;;;;;;;;;;;;;;;;5054792;28;19954;-70
2024/01/08 10:22:37;;;;;;;;;;;;;;;;;;5055246;28;19909;-70
2024/01/08 10:25:03;;;;;;;;;;;;;;;;;;5055767;28;19955;-70
2024/01/08 10:27:29;;;;;;;;;;;;;;;;;;5055725;28;19917;-71
2024/01/08 10:29:55;;;;;;;;;;;;;;;;;;5055097;28;19909;-71
2024/01/08 10:32:21;;;;;;;;;;;;;;;;;;5055452;28;19909;-71
2024/01/08 10:34:47;;;;;;;;;;;;;;;;;;5055381;28;19909;-71
2024/01/08 10:37:13;;;;;;;;;;;;;;;;;;5054913;28;19955;-71
2024/01/08 10:39:39;;;;;;;;;;;;;;;;;;5053983;28;20263;-70
2024/01/08 10:42:05;;;;;;;;;;;;;;;;;;5055340;28;19916;-70
2024/01/08 10:44:31;;;;;;;;;;;;;;;;;;5054907;28;19909;-71
2024/01/08 10:46:57;;;;;;;;;;;;;;;;;;5055152;28;20365;-70
2024/01/08 10:49:23;;;;;;;;;;;;;;;;;;5053863;28;19958;-71
2024/01/08 10:51:49;;;;;;;;;;;;;;;;;;5053394;28;19955;-71
2024/01/08 10:54:15;;;;;;;;;;;;;;;;;;5055178;28;19916;-70
2024/01/08 10:56:41;;;;;;;;;;;;;;;;;;5054750;28;19921;-70
2024/01/08 10:59:10;;;;;;;;;;;;;;;;;;5054521;28;20015;-71
2024/01/08 11:01:36;;;;;;;;;;;;;;;;;;5054930;28;20225;-70
2024/01/08 11:04:05;;;;;;;;;;;;;;;;;;5054889;28;19955;-70
2024/01/08 11:06:30;;;;;;;;;;;;;;;;;;5054309;28;20361;-70
2024/01/08 11:09:00;;;;;;;;;;;;;;;;;;5054740;28;19915;-69
2024/01/08 11:11:26;;;;;;;;;;;;;;;;;;5054379;28;19909;-71
2024/01/08 11:13:52;;;;;;;;;;;;;;;;;;5054703;28;19908;-70
2024/01/08 11:16:18;;;;;;;;;;;;;;;;;;5054588;28;19909;-70
2024/01/08 11:18:44;;;;;;;;;;;;;;;;;;5054118;28;19973;-69
2024/01/08 11:21:10;;;;;;;;;;;;;;;;;;5054538;28;19909;-69
2024/01/08 11:23:39;;;;;;;;;;;;;;;;;;5054538;28;20388;-71
2024/01/08 11:26:05;;;;;;;;;;;;;;;;;;5054057;28;19909;-69
2024/01/08 11:28:32;;;;;;;;;;;;;;;;;;5053039;28;19909;-69
2024/01/08 11:30:58;;;;;;;;;;;;;;;;;;5053034;28;19909;-70
2024/01/08 11:33:24;;;;;;;;;;;;;;;;;;5052661;28;19920;-70
2024/01/08 11:35:50;;;;;;;;;;;;;;;;;;5054243;28;19931;-70
2024/01/08 11:38:16;;;;;;;;;;;;;;;;;;5052828;28;19916;-70
2024/01/08 11:40:42;;;;;;;;;;;;;;;;;;5054194;28;19991;-70
2024/01/08 11:43:08;;;;;;;;;;;;;;;;;;5053953;28;20427;-70
2024/01/08 11:45:34;;;;;;;;;;;;;;;;;;5054009;28;20284;-70
2024/01/08 11:48:00;;;;;;;;;;;;;;;;;;5053624;28;19956;-70
2024/01/08 11:50:26;;;;;;;;;;;;;;;;;;5054062;28;19909;-70
2024/01/08 11:52:52;;;;;;;;;;;;;;;;;;5053866;28;20327;-70
2024/01/08 11:55:20;;;;;;;;;;;;;;;;;;5052067;28;19960;-70
2024/01/08 11:57:46;;;;;;;;;;;;;;;;;;5053863;28;19913;-70
2024/01/08 12:00:14;;;;;;;;;;;;;;;;;;5053497;28;20202;-70
2024/01/08 12:02:39;;;;;;;;;;;;;;;;;;5053400;28;19908;-70
2024/01/08 12:05:05;;;;;;;;;;;;;;;;;;5053756;28;20357;-70
2024/01/08 12:07:37;;;;;;;;;;;;;;;;;;5053828;28;20285;-70
2024/01/08 12:10:07;;;;;;;;;;;;;;;;;;5054205;28;19909;-69
2024/01/08 12:12:33;;;;;;;;;;;;;;;;;;5054250;28;20300;-70
2024/01/08 12:14:59;;;;;;;;;;;;;;;;;;5053259;28;19912;-70
2024/01/08 12:17:25;;;;;;;;;;;;;;;;;;5053662;28;19909;-70
2024/01/08 12:19:54;;;;;;;;;;;;;;;;;;5053461;28;19924;-70
2024/01/08 12:22:20;;;;;;;;;;;;;;;;;;5051867;28;19916;-70
2024/01/08 12:24:47;;;;;;;;;;;;;;;;;;5053579;28;19935;-70
2024/01/08 12:27:13;;;;;;;;;;;;;;;;;;5053526;28;19909;-69
2024/01/08 12:29:39;;;;;;;;;;;;;;;;;;5053238;28;20276;-70
2024/01/08 12:32:04;;;;;;;;;;;;;;;;;;5052272;28;20385;-71
2024/01/08 12:34:30;;;;;;;;;;;;;;;;;;5053487;28;19915;-70
2024/01/08 12:36:56;;;;;;;;;;;;;;;;;;5053393;28;19909;-70
2024/01/08 12:39:23;;;;;;;;;;;;;;;;;;5053856;28;20362;-70
2024/01/08 12:41:50;;;;;;;;;;;;;;;;;;5053506;28;19916;-70
2024/01/08 12:44:16;;;;;;;;;;;;;;;;;;5055830;28;19915;-70
2024/01/08 12:46:42;;;;;;;;;;;;;;;;;;5056236;28;19913;-70
2024/01/08 12:49:08;;;;;;;;;;;;;;;;;;5057335;28;20003;-70
2024/01/08 12:51:34;;;;;;;;;;;;;;;;;;5057188;28;19913;-70
2024/01/08 12:54:01;;;;;;;;;;;;;;;;;;5056081;28;19908;-70
2024/01/08 12:56:27;;;;;;;;;;;;;;;;;;5057130;28;19921;-70
2024/01/08 12:58:53;;;;;;;;;;;;;;;;;;5056738;28;19924;-71
2024/01/08 13:01:19;;;;;;;;;;;;;;;;;;5056279;28;20019;-70
2024/01/08 13:03:45;;;;;;;;;;;;;;;;;;5057237;28;19979;-70
2024/01/08 13:06:11;;;;;;;;;;;;;;;;;;5055379;28;19915;-70
2024/01/08 13:08:37;;;;;;;;;;;;;;;;;;5057120;28;19999;-70
2024/01/08 13:11:02;;;;;;;;;;;;;;;;;;5055343;28;20003;-70
2024/01/08 13:13:29;;;;;;;;;;;;;;;;;;5057382;28;19909;-70
2024/01/08 13:15:55;;;;;;;;;;;;;;;;;;5055677;28;19924;-70
2024/01/08 13:18:21;;;;;;;;;;;;;;;;;;5056705;28;20324;-70
2024/01/08 13:20:47;;;;;;;;;;;;;;;;;;5056845;28;20341;-70
2024/01/08 13:23:13;;;;;;;;;;;;;;;;;;5056804;28;20284;-70
2024/01/08 13:25:39;;;;;;;;;;;;;;;;;;5056383;28;19970;-70
2024/01/08 13:28:05;;;;;;;;;;;;;;;;;;5055496;28;19909;-70
2024/01/08 13:30:31;;;;;;;;;;;;;;;;;;5055483;28;19962;-70
2024/01/08 13:32:57;;;;;;;;;;;;;;;;;;5056286;28;19909;-70
2024/01/08 13:35:23;;;;;;;;;;;;;;;;;;5055376;28;19916;-70
2024/01/08 13:37:49;;;;;;;;;;;;;;;;;;5056501;28;19909;-70
2024/01/08 13:40:15;;;;;;;;;;;;;;;;;;5056259;28;19994;-70
2024/01/08 13:42:42;;;;;;;;;;;;;;;;;;5056473;28;19916;-70
2024/01/08 13:45:08;;;;;;;;;;;;;;;;;;5056363;28;19909;-70
2024/01/08 13:47:34;;;;;;;;;;;;;;;;;;5055929;28;19912;-70
2024/01/08 13:50:00;;;;;;;;;;;;;;;;;;5056334;28;19979;-69
2024/01/08 13:52:27;;;;;;;;;;;;;;;;;;5055001;28;19915;-70
2024/01/08 13:54:53;;;;;;;;;;;;;;;;;;5054738;28;19916;-70
2024/01/08 13:57:19;;;;;;;;;;;;;;;;;;5055969;28;20305;-70
2024/01/08 13:59:45;;;;;;;;;;;;;;;;;;5056046;28;19921;-70
2024/01/08 14:02:11;;;;;;;;;;;;;;;;;;5054408;28;19916;-70
2024/01/08 14:04:37;;;;;;;;;;;;;;;;;;5056117;28;19908;-70
2024/01/08 14:07:03;;;;;;;;;;;;;;;;;;5055970;28;19996;-70
2024/01/08 14:09:29;;;;;;;;;;;;;;;;;;5055546;28;19915;-70
2024/01/08 14:11:55;;;;;;;;;;;;;;;;;;5055886;28;19935;-70
2024/01/08 14:14:21;;;;;;;;;;;;;;;;;;5055408;28;19909;-70
2024/01/08 14:16:47;;;;;;;;;;;;;;;;;;5055766;28;20046;-70
2024/01/08 14:19:13;;;;;;;;;;;;;;;;;;5054396;28;19916;-70
2024/01/08 14:21:39;;;;;;;;;;;;;;;;;;5055356;28;19964;-71
2024/01/08 14:24:05;;;;;;;;;;;;;;;;;;5055625;28;19913;-70
2024/01/08 14:26:31;;;;;;;;;;;;;;;;;;5055572;28;19916;-69
2024/01/08 14:28:57;;;;;;;;;;;;;;;;;;5055171;28;19909;-70
2024/01/08 14:31:22;;;;;;;;;;;;;;;;;;5055522;28;20015;-70
2024/01/08 14:33:48;;;;;;;;;;;;;;;;;;5056092;28;19971;-70
2024/01/08 14:36:14;;;;;;;;;;;;;;;;;;5055074;28;20000;-71
2024/01/08 14:38:40;;;;;;;;;;;;;;;;;;5054059;28;20373;-70
2024/01/08 14:41:06;;;;;;;;;;;;;;;;;;5055408;28;20328;-70
2024/01/08 14:43:32;;;;;;;;;;;;;;;;;;5053998;28;19909;-70
2024/01/08 14:45:58;;;;;;;;;;;;;;;;;;5055848;28;20349;-69
2024/01/08 14:48:24;;;;;;;;;;;;;;;;;;5055177;28;20058;-70
2024/01/08 14:50:50;;;;;;;;;;;;;;;;;;5054768;28;19916;-70
2024/01/08 14:53:16;;;;;;;;;;;;;;;;;;5055158;28;19995;-70
2024/01/08 14:55:42;;;;;;;;;;;;;;;;;;5054860;28;19943;-70
2024/01/08 14:58:08;;;;;;;;;;;;;;;;;;5053332;28;19974;-71
2024/01/08 15:00:34;;;;;;;;;;;;;;;;;;5055076;28;19917;-71
2024/01/08 15:03:00;;;;;;;;;;;;;;;;;;5054975;28;19995;-70
2024/01/08 15:05:26;;;;;;;;;;;;;;;;;;5054118;28;20300;-71
2024/01/08 15:07:52;;;;;;;;;;;;;;;;;;5054783;28;19913;-69
2024/01/08 15:10:21;;;;;;;;;;;;;;;;;;5053517;28;19979;-70
2024/01/08 15:12:47;;;;;;;;;;;;;;;;;;5054330;28;19916;-69
2024/01/08 15:15:13;;;;;;;;;;;;;;;;;;5054636;28;19916;-70
2024/01/08 15:17:39;;;;;;;;;;;;;;;;;;5054277;28;19909;-70
2024/01/08 15:20:08;;;;;;;;;;;;;;;;;;5054686;28;20285;-71
2024/01/08 15:22:34;;;;;;;;;;;;;;;;;;5054565;28;20051;-70
2024/01/08 15:25:00;;;;;;;;;;;;;;;;;;5054086;28;20003;-71
2024/01/08 15:27:26;;;;;;;;;;;;;;;;;;5054479;28;19909;-71
2024/01/08 15:29:52;;;;;;;;;;;;;;;;;;5054386;28;19916;-71
2024/01/08 15:32:19;;;;;;;;;;;;;;;;;;5053943;28;20369;-70
2024/01/08 15:34:45;;;;;;;;;;;;;;;;;;5054551;28;19909;-71
2024/01/08 15:37:11;;;;;;;;;;;;;;;;;;5054798;28;20246;-69
2024/01/08 15:39:37;;;;;;;;;;;;;;;;;;5052419;28;19921;-70
2024/01/08 15:42:03;;;;;;;;;;;;;;;;;;5054232;28;19964;-70
2024/01/08 15:44:29;;;;;;;;;;;;;;;;;;5054084;28;19908;-70
2024/01/08 15:46:55;;;;;;;;;;;;;;;;;;5053689;28;19909;-69
2024/01/08 15:49:21;;;;;;;;;;;;;;;;;;5054069;28;20413;-70
2024/01/08 15:51:47;;;;;;;;;;;;;;;;;;5054550;28;20265;-70
2024/01/08 15:54:13;;;;;;;;;;;;;;;;;;5052376;28;19909;-70
2024/01/08 15:56:38;;;;;;;;;;;;;;;;;;5053769;28;20393;-70
2024/01/08 15:59:04;;;;;;;;;;;;;;;;;;5053810;28;20384;-70
2024/01/08 16:01:32;;;;;;;;;;;;;;;;;;5052411;28;19931;-69
2024/01/08 16:03:58;;;;;;;;;;;;;;;;;;5054030;28;20301;-70
2024/01/08 16:06:23;;;;;;;;;;;;;;;;;;5053841;28;19909;-70
2024/01/08 16:08:49;;;;;;;;;;;;;;;;;;5053529;28;19975;-70
2024/01/08 16:11:17;;;;;;;;;;;;;;;;;;5053719;28;19913;-70
2024/01/08 16:13:42;;;;;;;;;;;;;;;;;;5052450;28;19916;-71
2024/01/08 16:16:08;;;;;;;;;;;;;;;;;;5053291;28;19919;-71
2024/01/08 16:18:35;;;;;;;;;;;;;;;;;;5053038;28;19952;-70
2024/01/08 16:21:02;;;;;;;;;;;;;;;;;;5051871;28;19909;-70
2024/01/08 16:23:28;;;;;;;;;;;;;;;;;;5053684;28;19923;-70
2024/01/08 16:25:54;;;;;;;;;;;;;;;;;;5053679;28;19995;-70
2024/01/08 16:28:20;;;;;;;;;;;;;;;;;;5051918;28;19909;-70
2024/01/08 16:30:48;;;;;;;;;;;;;;;;;;5052375;28;19909;-70
2024/01/08 16:33:14;;;;;;;;;;;;;;;;;;5053577;28;19913;-70
2024/01/08 16:35:40;;;;;;;;;;;;;;;;;;5051904;28;19996;-69
2024/01/08 16:38:06;;;;;;;;;;;;;;;;;;5053491;28;19916;-70